Orbital elements of FENGYUN 1C DEB
| Launched | 9 May 1999 |
| Flight ended | – |
| Launch site | Taiyuan Space Center, PRC |
| Owner | People's Republic of China |
| NORAD ID | 30103 |
| Date fetched |
Epoch osculation |
Inc. [°] |
Ecc. | RA asc node [hr] |
Arg Peri. [°] |
Mean anom [°] |
Mean motion [rev/day] |
Abs. mag |
| Date fetched |
Epoch osculation |
Inc. [°] |
Ecc. | RA asc node [hr] |
Arg Peri. [°] |
Mean anom [°] |
Mean motion [rev/day] |
Abs. mag |
| 2026 May 05 17:57 | 2026 May 04 23:10:59 | 99.2584 | 0.00640 | 7.9445 | 71.4071 | 315.1524 | 14.25219 | – |
| 2026 May 04 17:57 | 2026 Apr 30 11:49:07 | 99.2584 | 0.00640 | 7.6298 | 83.9916 | 315.1524 | 14.25219 | – |
| 2026 May 03 17:57 | 2026 Apr 30 11:49:07 | 99.2584 | 0.00640 | 7.6298 | 83.9916 | 315.1524 | 14.25219 | – |
| 2026 May 02 17:57 | 2026 Apr 30 11:49:07 | 99.2584 | 0.00640 | 7.6298 | 83.9916 | 315.1524 | 14.25219 | – |
| 2026 May 01 17:56 | 2026 Apr 30 11:49:07 | 99.2584 | 0.00640 | 7.6298 | 83.9916 | 315.1524 | 14.25219 | – |
| 2026 Apr 30 17:56 | 2026 Apr 30 11:49:07 | 99.2584 | 0.00640 | 7.6298 | 83.9916 | 315.1524 | 14.25219 | – |
| 2026 Apr 29 17:57 | 2026 Apr 24 11:01:57 | 99.2585 | 0.00640 | 7.2056 | 100.9159 | 315.1524 | 14.25219 | – |
| 2026 Apr 28 17:56 | 2026 Apr 24 11:01:57 | 99.2585 | 0.00640 | 7.2056 | 100.9159 | 315.1524 | 14.25219 | – |
| 2026 Apr 27 17:58 | 2026 Apr 24 11:01:57 | 99.2585 | 0.00640 | 7.2056 | 100.9159 | 315.1524 | 14.25219 | – |
| 2026 Apr 26 17:58 | 2026 Apr 24 11:01:57 | 99.2585 | 0.00640 | 7.2056 | 100.9159 | 315.1524 | 14.25219 | – |
| 2026 Apr 25 17:58 | 2026 Apr 24 11:01:57 | 99.2585 | 0.00640 | 7.2056 | 100.9159 | 315.1524 | 14.25219 | – |
| 2026 Apr 24 17:59 | 2026 Apr 24 11:01:57 | 99.2585 | 0.00640 | 7.2056 | 100.9159 | 315.1524 | 14.25219 | – |
| 2026 Apr 23 17:57 | 2026 Apr 18 13:21:32 | 99.2583 | 0.00639 | 6.7904 | 117.5384 | 315.1524 | 14.25219 | – |
| 2026 Apr 22 17:57 | 2026 Apr 18 13:21:32 | 99.2583 | 0.00639 | 6.7904 | 117.5384 | 315.1524 | 14.25219 | – |
| 2026 Apr 21 17:57 | 2026 Apr 18 13:21:32 | 99.2583 | 0.00639 | 6.7904 | 117.5384 | 315.1524 | 14.25219 | – |
| 2026 Apr 20 17:57 | 2026 Apr 18 13:21:32 | 99.2583 | 0.00639 | 6.7904 | 117.5384 | 315.1524 | 14.25219 | – |
| 2026 Apr 19 17:58 | 2026 Apr 18 13:21:32 | 99.2583 | 0.00639 | 6.7904 | 117.5384 | 315.1524 | 14.25219 | – |
| 2026 Apr 18 17:56 | 2026 Apr 12 22:09:16 | 99.2579 | 0.00637 | 6.3942 | 133.4204 | 315.1524 | 14.25219 | – |
| 2026 Apr 16 17:57 | 2026 Apr 12 22:09:16 | 99.2579 | 0.00637 | 6.3942 | 133.4204 | 315.1524 | 14.25219 | – |
| 2026 Apr 14 17:57 | 2026 Apr 12 22:09:16 | 99.2579 | 0.00637 | 6.3942 | 133.4204 | 315.1524 | 14.25219 | – |
| 2026 Apr 13 17:57 | 2026 Apr 12 22:09:16 | 99.2579 | 0.00637 | 6.3942 | 133.4204 | 315.1524 | 14.25219 | – |
| 2026 Apr 12 17:57 | 2026 Apr 08 10:52:22 | 99.2581 | 0.00635 | 6.0799 | 146.0746 | 315.1524 | 14.25219 | – |
| 2026 Apr 11 17:57 | 2026 Apr 08 10:52:22 | 99.2581 | 0.00635 | 6.0799 | 146.0746 | 315.1524 | 14.25219 | – |
| 2026 Apr 10 17:58 | 2026 Apr 08 10:52:22 | 99.2581 | 0.00635 | 6.0799 | 146.0746 | 315.1524 | 14.25219 | – |
| 2026 Apr 09 18:01 | 2026 Apr 08 10:52:22 | 99.2581 | 0.00635 | 6.0799 | 146.0746 | 315.1524 | 14.25219 | – |
| 2026 Apr 08 17:57 | 2026 Apr 08 10:52:22 | 99.2581 | 0.00635 | 6.0799 | 146.0746 | 315.1524 | 14.25219 | – |